Terminal Aerodrome Forecast
Issued by NWS

Home | Current Version | Previous Version | Text Only | Print | Product List | Glossary On
Versions: 1 2 3 4 5 6 7 8 9 10 11 12 13 14 15 16 17 18
000
FTUS41 KPBZ 201700
TAFLBE
TAF
KLBE 201724Z 2018/2118 VRB03KT P6SM SCT050 BKN150
     FM210300 00000KT P6SM BKN025 OVC100
     FM211000 00000KT P6SM BKN015=

USA.gov is the U.S. government's official web portal to all federal, state and local government web resources and services.